Time;durP1;ratioP1;P1;durP2;ratioP2;P2;SDS_P1;SDS_P2;PMS_P1;PMS_P2;Temp;Humidity;BMP_temperature;BMP_pressure;BME280_temperature;BME280_humidity;BME280_pressure;Samples;Min_cycle;Max_cycle;Signal;HPM_P1;HPM_P2
2021/05/11 00:01:47;;;;;;;8.32;4.38;;;;;;;16.60;46.30;99817.75;5046913;28;20045;-69
2021/05/11 00:04:14;;;;;;;12.45;5.55;;;;;;;16.57;46.51;99814.59;5046390;28;20143;-69
2021/05/11 00:06:41;;;;;;;9.85;4.78;;;;;;;16.58;46.34;99811.75;5045555;28;20045;-69
2021/05/11 00:09:07;;;;;;;6.78;3.70;;;;;;;16.58;46.41;99810.91;5048053;28;20107;-69
2021/05/11 00:11:35;;;;;;;6.38;3.95;;;;;;;16.56;46.39;99808.38;5045874;28;20400;-69
2021/05/11 00:14:06;;;;;;;6.05;4.65;;;;;;;16.54;46.41;99810.38;5046383;28;20049;-70
2021/05/11 00:16:34;;;;;;;6.10;3.75;;;;;;;16.58;46.30;99817.09;5046532;28;20048;-70
2021/05/11 00:19:04;;;;;;;6.93;4.85;;;;;;;16.56;46.55;99813.72;5046049;28;20223;-69
2021/05/11 00:21:31;;;;;;;6.88;4.93;;;;;;;16.55;46.64;99819.25;5044611;28;20049;-69
2021/05/11 00:23:57;;;;;;;7.78;3.80;;;;;;;16.57;46.53;99814.59;5044188;28;20045;-68
2021/05/11 00:26:23;;;;;;;6.38;4.00;;;;;;;16.54;46.61;99814.91;5047509;28;20113;-68
2021/05/11 00:28:50;;;;;;;6.85;3.95;;;;;;;16.53;46.61;99811.41;5044874;28;20045;-67
2021/05/11 00:31:16;;;;;;;7.10;4.25;;;;;;;16.51;46.67;99821.41;5044932;28;20059;-69
2021/05/11 00:33:42;;;;;;;6.40;4.10;;;;;;;16.50;46.61;99809.06;5045835;28;20132;-68
2021/05/11 00:36:11;;;;;;;6.32;4.22;;;;;;;16.48;46.63;99812.88;5044935;28;20048;-67
2021/05/11 00:38:37;;;;;;;6.50;4.78;;;;;;;16.47;46.52;99803.19;5045657;28;20049;-68
2021/05/11 00:41:03;;;;;;;5.65;3.20;;;;;;;16.48;46.55;99808.38;5044901;28;20048;-68
2021/05/11 00:43:30;;;;;;;7.53;4.13;;;;;;;16.46;46.61;99807.72;5044618;28;20060;-70
2021/05/11 00:45:58;;;;;;;5.15;4.05;;;;;;;16.46;46.50;99806.84;5045493;28;20049;-70
2021/05/11 00:48:24;;;;;;;6.65;3.90;;;;;;;16.45;46.68;99803.34;5045593;28;20053;-70
2021/05/11 00:50:51;;;;;;;6.40;3.88;;;;;;;16.44;46.75;99809.69;5044400;28;20171;-67
2021/05/11 00:53:21;;;;;;;8.07;5.35;;;;;;;16.42;46.83;99798.34;5043832;28;20049;-69
2021/05/11 00:55:49;;;;;;;7.05;3.85;;;;;;;16.40;46.74;99803.84;5044145;28;20048;-69
2021/05/11 00:58:15;;;;;;;8.07;4.40;;;;;;;16.38;46.76;99807.66;5044777;28;20229;-68
2021/05/11 01:00:41;;;;;;;5.97;3.65;;;;;;;16.37;46.70;99803.34;5045172;28;20053;-68
2021/05/11 01:03:08;;;;;;;10.25;4.20;;;;;;;16.37;46.76;99808.66;5044171;28;20114;-69
2021/05/11 01:05:34;;;;;;;5.50;4.22;;;;;;;16.34;46.65;99801.81;5044374;28;20056;-67
2021/05/11 01:08:00;;;;;;;5.88;3.60;;;;;;;16.32;46.84;99810.97;5044609;28;20487;-70
2021/05/11 01:10:28;;;;;;;5.80;3.35;;;;;;;16.25;46.94;99798.28;5046022;28;20052;-69
2021/05/11 01:12:54;;;;;;;7.65;3.80;;;;;;;16.22;46.93;99798.59;5045296;28;20059;-68
2021/05/11 01:15:21;;;;;;;5.75;3.53;;;;;;;16.17;47.19;99792.91;5044934;28;20045;-68
2021/05/11 01:17:52;;;;;;;6.90;3.78;;;;;;;16.13;47.20;99799.53;5044521;28;20045;-69
2021/05/11 01:20:27;;;;;;;7.20;3.67;;;;;;;16.09;47.43;99795.53;5044142;28;20060;-69
2021/05/11 01:25:50;;;;;;;7.10;3.95;;;;;;;16.04;47.26;99793.34;5001850;28;20045;-69
2021/05/11 01:28:21;;;;;;;10.20;4.20;;;;;;;16.00;47.29;99785.81;5002367;28;20168;-68
2021/05/11 01:31:09;;;;;;;6.85;3.72;;;;;;;16.01;47.30;99791.00;5002298;28;20050;-68
2021/05/11 01:47:56;;;;;;;7.15;4.30;;;;;;;15.82;47.71;99793.88;4963287;28;20106;-69
2021/05/11 01:50:26;;;;;;;5.97;3.88;;;;;;;15.82;47.70;99796.53;4963426;28;20078;-69
2021/05/11 01:53:10;;;;;;;9.98;5.63;;;;;;;15.76;47.82;99799.81;4961436;28;20058;-69
2021/05/11 01:58:45;;;;;;;9.98;4.50;;;;;;;15.71;47.92;99792.25;4963340;28;20238;-68
2021/05/11 02:23:10;;;;;;;8.70;4.40;;;;;;;15.36;48.89;99778.03;5041661;28;20091;-70
2021/05/11 02:25:36;;;;;;;9.18;4.30;;;;;;;15.36;48.88;99771.84;5044339;28;20071;-69
2021/05/11 02:28:04;;;;;;;9.68;4.32;;;;;;;15.35;48.87;99772.88;5044718;28;20049;-70
2021/05/11 02:30:30;;;;;;;7.25;4.97;;;;;;;15.34;48.78;99763.19;5043825;28;20094;-70
2021/05/11 02:32:57;;;;;;;11.35;4.07;;;;;;;15.33;49.01;99773.00;5044485;28;20053;-68
2021/05/11 02:35:23;;;;;;;6.95;3.90;;;;;;;15.32;48.96;99767.84;5045251;28;20045;-70
2021/05/11 02:37:50;;;;;;;7.25;3.95;;;;;;;15.34;49.08;99763.19;5043552;28;20053;-70
2021/05/11 02:40:20;;;;;;;12.02;4.10;;;;;;;15.35;49.12;99767.53;5043181;28;20045;-71
2021/05/11 02:42:50;;;;;;;8.68;4.40;;;;;;;15.33;49.06;99772.19;5043898;28;20045;-71
2021/05/11 02:45:17;;;;;;;6.00;4.57;;;;;;;15.29;49.18;99771.66;5045128;28;20053;-69
2021/05/11 02:47:51;;;;;;;7.38;4.13;;;;;;;15.28;49.35;99769.97;5048724;28;20052;-67
2021/05/11 02:50:19;;;;;;;8.40;4.35;;;;;;;15.28;49.21;99770.81;5047290;28;20148;-69
2021/05/11 02:52:46;;;;;;;5.93;3.72;;;;;;;15.27;49.18;99774.47;5045307;28;20049;-68
2021/05/11 02:55:16;;;;;;;7.20;4.15;;;;;;;15.29;49.18;99775.16;5048208;28;20067;-69
2021/05/11 02:57:42;;;;;;;8.82;4.10;;;;;;;15.29;49.02;99780.47;5047386;28;20056;-67
2021/05/11 03:00:12;;;;;;;7.07;4.20;;;;;;;15.29;49.21;99776.97;5049436;28;20413;-69
2021/05/11 03:02:42;;;;;;;6.15;4.15;;;;;;;15.30;49.31;99778.63;5046892;28;20056;-69
2021/05/11 03:05:09;;;;;;;7.25;4.22;;;;;;;15.30;49.16;99781.28;5048058;28;20041;-69
2021/05/11 03:07:36;;;;;;;8.00;3.80;;;;;;;15.29;49.02;99775.16;5048574;28;20049;-68
2021/05/11 03:10:03;;;;;;;6.93;4.28;;;;;;;15.31;49.09;99784.81;5046900;28;20045;-68
2021/05/11 03:12:30;;;;;;;8.80;4.43;;;;;;;15.29;49.37;99774.31;5046416;28;20044;-68
2021/05/11 03:14:56;;;;;;;7.45;4.63;;;;;;;15.25;49.58;99775.59;5047433;28;20617;-69
2021/05/11 03:17:23;;;;;;;7.90;4.03;;;;;;;15.25;49.54;99783.56;5047593;28;20048;-69
2021/05/11 03:19:52;;;;;;;7.57;4.40;;;;;;;15.25;49.45;99776.44;5046843;28;20528;-68
2021/05/11 03:22:18;;;;;;;10.13;4.90;;;;;;;15.24;49.65;99780.09;5046732;28;20203;-68
2021/05/11 03:24:45;;;;;;;8.38;4.40;;;;;;;15.25;49.60;99783.56;5045274;28;20088;-69
2021/05/11 03:27:12;;;;;;;8.45;4.50;;;;;;;15.26;49.61;99777.28;5048552;28;20132;-68
2021/05/11 03:29:39;;;;;;;8.82;4.35;;;;;;;15.27;49.68;99779.78;5047679;28;20113;-69
2021/05/11 03:32:07;;;;;;;6.50;4.15;;;;;;;15.30;49.53;99778.63;5047558;28;20136;-69
2021/05/11 03:34:33;;;;;;;5.22;3.88;;;;;;;15.32;49.65;99771.31;5048566;28;20140;-70
2021/05/11 03:37:00;;;;;;;5.70;4.18;;;;;;;15.32;49.73;99770.50;5047706;28;20171;-69
2021/05/11 03:39:30;;;;;;;5.65;3.50;;;;;;;15.36;49.75;99771.84;5048013;28;20076;-69
2021/05/11 03:42:00;;;;;;;6.38;4.82;;;;;;;15.40;49.48;99773.25;5046467;28;20392;-70
2021/05/11 03:44:30;;;;;;;6.40;4.43;;;;;;;15.41;49.62;99769.56;5046407;28;20067;-69
2021/05/11 03:46:56;;;;;;;7.85;4.53;;;;;;;15.46;49.45;99772.63;5046531;28;20041;-70
2021/05/11 03:49:23;;;;;;;8.38;4.13;;;;;;;15.49;49.61;99767.81;5046875;28;20140;-69
2021/05/11 03:51:50;;;;;;;6.63;4.72;;;;;;;15.53;49.25;99773.66;5045958;28;20048;-69
2021/05/11 03:54:17;;;;;;;6.63;4.28;;;;;;;15.56;49.36;99768.03;5044700;28;20049;-70
2021/05/11 03:56:43;;;;;;;7.82;5.65;;;;;;;15.60;49.43;99768.56;5046173;28;20433;-68
2021/05/11 03:59:10;;;;;;;11.02;6.05;;;;;;;15.64;49.54;99772.56;5046090;28;20065;-69
2021/05/11 04:01:36;;;;;;;9.90;5.15;;;;;;;15.66;49.48;99767.94;5046394;28;20045;-70
2021/05/11 04:04:03;;;;;;;12.45;4.57;;;;;;;15.68;49.45;99761.47;5046037;28;20045;-70
2021/05/11 04:06:29;;;;;;;6.68;3.63;;;;;;;15.74;49.42;99764.50;5046313;28;20059;-69
2021/05/11 04:08:59;;;;;;;8.27;4.70;;;;;;;15.78;49.21;99757.91;5046630;28;20055;-69
2021/05/11 04:17:01;;;;;;;6.38;4.40;;;;;;;15.96;49.03;99758.66;5014401;28;20053;-69
2021/05/11 04:19:27;;;;;;;7.05;4.40;;;;;;;16.01;48.89;99761.69;5046590;28;20067;-69
2021/05/11 04:21:53;;;;;;;9.00;4.72;;;;;;;16.08;48.80;99756.56;5045173;28;20148;-70
2021/05/11 04:24:23;;;;;;;6.97;4.57;;;;;;;16.13;48.67;99766.75;5045549;28;20118;-71
2021/05/11 04:26:50;;;;;;;7.78;4.40;;;;;;;16.37;48.40;99766.03;5046010;28;20461;-69
2021/05/11 04:29:16;;;;;;;8.15;4.80;;;;;;;17.44;46.41;99771.56;5046132;28;20045;-69
2021/05/11 04:31:43;;;;;;;10.18;5.15;;;;;;;18.62;44.13;99773.59;5045336;28;20052;-69
2021/05/11 04:34:09;;;;;;;6.05;3.90;;;;;;;19.61;42.20;99765.75;5046820;28;20049;-68
2021/05/11 04:36:36;;;;;;;6.93;3.85;;;;;;;20.47;40.43;99768.81;5046970;28;20053;-71
2021/05/11 04:39:03;;;;;;;8.77;4.80;;;;;;;21.26;38.93;99765.34;5053828;28;20041;-70
2021/05/11 04:41:31;;;;;;;8.95;4.45;;;;;;;21.87;37.98;99763.97;5046681;28;20056;-70
2021/05/11 04:44:03;;;;;;;7.47;4.82;;;;;;;22.45;36.82;99766.38;5048360;28;20045;-72
2021/05/11 04:46:41;;;;;;;7.15;4.78;;;;;;;22.80;36.16;99774.41;5050585;28;20056;-75
2021/05/11 04:49:08;;;;;;;7.63;3.90;;;;;;;23.41;35.20;99768.09;5052983;28;20057;-72
2021/05/11 04:51:34;;;;;;;8.45;5.07;;;;;;;23.91;34.71;99763.06;5059018;28;20059;-75
2021/05/11 04:54:01;;;;;;;12.63;11.23;;;;;;;24.32;33.96;99756.53;5058145;28;20617;-71
2021/05/11 04:56:30;;;;;;;6.30;4.38;;;;;;;24.49;33.52;99764.13;5061876;28;20117;-72
2021/05/11 04:58:57;;;;;;;10.20;4.50;;;;;;;24.52;33.24;99767.25;5059546;28;20041;-71
2021/05/11 05:01:24;;;;;;;8.30;4.95;;;;;;;24.61;33.62;99762.47;5063469;28;20080;-70
2021/05/11 05:03:53;;;;;;;9.48;4.85;;;;;;;24.75;32.96;99760.53;5054429;28;20051;-70
2021/05/11 05:06:20;;;;;;;7.78;4.75;;;;;;;24.79;32.76;99750.94;5062359;28;20029;-70
2021/05/11 05:08:47;;;;;;;9.32;4.75;;;;;;;25.00;32.85;99758.69;5064794;28;20051;-73
2021/05/11 05:11:17;;;;;;;5.63;4.45;;;;;;;25.12;32.04;99758.84;5035946;28;20090;-73
2021/05/11 05:13:43;;;;;;;8.27;3.88;;;;;;;25.27;31.92;99758.56;5067267;28;20105;-69
2021/05/11 05:16:11;;;;;;;6.40;4.63;;;;;;;25.58;31.39;99756.84;5066101;28;20037;-72
2021/05/11 05:18:37;;;;;;;6.45;4.65;;;;;;;25.81;31.02;99748.09;5062093;28;20052;-72
2021/05/11 05:21:07;;;;;;;6.97;4.50;;;;;;;25.95;30.95;99748.81;5068395;28;20040;-69
2021/05/11 05:23:39;;;;;;;5.82;4.32;;;;;;;26.18;30.62;99752.72;5061843;28;20045;-70
2021/05/11 05:26:08;;;;;;;12.60;5.55;;;;;;;26.25;30.57;99750.75;5061527;28;20191;-68
2021/05/11 05:28:37;;;;;;;7.65;5.32;;;;;;;26.07;30.49;99749.72;5061449;28;20097;-69
2021/05/11 05:31:04;;;;;;;9.32;4.47;;;;;;;25.76;30.94;99739.81;5062677;28;20102;-70
2021/05/11 05:33:34;;;;;;;11.93;5.82;;;;;;;25.66;31.37;99743.03;5062383;28;20074;-68
2021/05/11 05:36:01;;;;;;;6.18;4.35;;;;;;;25.90;31.16;99746.75;5064117;28;20068;-69
2021/05/11 05:38:31;;;;;;;10.60;4.75;;;;;;;26.28;30.61;99755.72;5061342;28;20165;-68
2021/05/11 05:41:00;;;;;;;8.88;4.68;;;;;;;26.52;30.65;99751.25;5059370;28;20636;-68
2021/05/11 05:43:27;;;;;;;7.63;4.72;;;;;;;26.02;31.25;99748.72;5060809;28;20045;-68
2021/05/11 05:45:54;;;;;;;6.47;4.63;;;;;;;24.79;32.47;99750.94;5062615;28;20136;-68
2021/05/11 05:48:21;;;;;;;6.05;4.00;;;;;;;23.63;34.74;99747.13;5059739;28;20088;-70
2021/05/11 05:50:52;;;;;;;9.13;6.13;;;;;;;22.80;35.71;99747.47;5059099;28;20057;-71
2021/05/11 05:53:24;;;;;;;11.52;5.22;;;;;;;22.19;36.68;99751.75;5058788;28;20060;-68
2021/05/11 05:55:50;;;;;;;12.65;4.68;;;;;;;21.73;37.47;99746.94;5057310;28;20143;-70
2021/05/11 05:58:17;;;;;;;7.22;4.53;;;;;;;21.39;38.84;99754.72;5057365;28;20045;-69
2021/05/11 06:00:45;;;;;;;10.40;4.43;;;;;;;21.13;39.39;99749.13;5060705;28;20097;-68
2021/05/11 06:03:30;;;;;;;9.48;5.78;;;;;;;20.96;40.05;99745.88;5059929;28;20070;-69
2021/05/11 06:05:57;;;;;;;10.07;5.03;;;;;;;20.88;40.05;99740.59;5061526;28;20048;-70
2021/05/11 06:08:24;;;;;;;8.20;5.55;;;;;;;20.77;40.84;99748.13;5060600;28;20104;-69
2021/05/11 06:10:54;;;;;;;6.95;4.32;;;;;;;20.76;41.42;99738.44;5059825;28;20033;-71
2021/05/11 06:13:25;;;;;;;6.57;4.78;;;;;;;20.69;41.43;99732.16;5044642;28;20088;-69
2021/05/11 06:18:37;;;;;;;6.20;3.92;;;;;;;20.63;41.52;99735.59;5061995;28;20389;-70
2021/05/11 06:21:06;;;;;;;8.85;5.03;;;;;;;20.69;41.63;99731.31;5061089;28;20190;-69
2021/05/11 06:23:35;;;;;;;6.57;4.40;;;;;;;20.70;42.16;99725.75;5058139;28;20043;-68
2021/05/11 06:26:01;;;;;;;9.43;4.78;;;;;;;20.72;41.90;99726.41;5026053;28;20077;-68
2021/05/11 06:28:30;;;;;;;9.32;4.22;;;;;;;20.73;41.51;99725.38;5058686;28;20045;-70
2021/05/11 06:30:57;;;;;;;10.05;4.97;;;;;;;20.75;42.11;99734.06;5058243;28;20306;-70
2021/05/11 06:33:24;;;;;;;8.27;4.45;;;;;;;20.79;42.26;99724.63;5056902;28;20112;-70
2021/05/11 06:35:52;;;;;;;7.00;4.35;;;;;;;20.85;41.71;99724.88;5056284;28;20029;-69
2021/05/11 06:38:21;;;;;;;7.22;4.10;;;;;;;20.89;41.79;99729.69;5058208;28;20190;-70
2021/05/11 06:40:48;;;;;;;11.00;4.50;;;;;;;20.92;41.64;99731.16;5021568;28;20043;-70
2021/05/11 06:43:17;;;;;;;6.35;4.78;;;;;;;20.95;41.63;99718.16;5054683;28;20744;-69
2021/05/11 06:48:34;;;;;;;10.85;4.30;;;;;;;21.07;41.23;99720.34;4995027;28;20122;-70
2021/05/11 06:53:48;;;;;;;8.75;4.40;;;;;;;21.22;41.31;99723.78;4994986;28;20113;-70
2021/05/11 06:56:15;;;;;;;11.48;5.20;;;;;;;21.32;41.43;99712.69;4992653;28;20078;-70
2021/05/11 06:58:42;;;;;;;8.02;4.68;;;;;;;21.40;41.79;99709.88;4994781;28;20102;-69
2021/05/11 07:01:08;;;;;;;6.95;4.43;;;;;;;21.48;41.59;99716.97;4998455;28;20166;-70
2021/05/11 07:03:35;;;;;;;13.82;4.50;;;;;;;21.56;41.25;99714.97;4996653;28;20046;-70
2021/05/11 07:06:01;;;;;;;7.13;4.13;;;;;;;21.66;41.47;99711.13;4997405;28;20185;-70
2021/05/11 07:08:36;;;;;;;5.93;4.20;;;;;;;21.85;41.17;99701.53;4998411;28;20164;-71
2021/05/11 07:11:11;;;;;;;10.02;3.90;;;;;;;22.06;40.23;99700.59;4985527;28;20171;-69
2021/05/11 07:13:37;;;;;;;8.38;4.53;;;;;;;22.21;40.33;99703.16;4977519;28;20050;-70
2021/05/11 07:16:04;;;;;;;8.73;4.15;;;;;;;22.29;40.85;99700.28;4978004;28;20047;-70
2021/05/11 07:18:32;;;;;;;6.82;4.15;;;;;;;22.42;40.45;99707.56;4980345;28;20053;-70
2021/05/11 07:21:00;;;;;;;10.32;3.80;;;;;;;22.52;39.99;99700.78;4978921;28;20047;-70
2021/05/11 07:23:27;;;;;;;8.27;4.65;;;;;;;22.56;39.87;99698.50;4976009;28;20237;-69
2021/05/11 07:26:01;;;;;;;8.23;4.82;;;;;;;22.59;39.50;99690.03;5020273;28;20068;-70
2021/05/11 07:31:07;;;;;;;7.38;4.40;;;;;;;22.86;39.70;99687.41;5040847;28;20133;-71
2021/05/11 07:33:37;;;;;;;9.05;4.30;;;;;;;23.02;39.26;99689.69;5041607;28;20728;-69
2021/05/11 07:36:04;;;;;;;7.50;3.53;;;;;;;23.17;38.94;99699.47;5043379;28;20114;-70
2021/05/11 07:38:30;;;;;;;6.32;4.10;;;;;;;23.33;38.45;99687.44;5040553;28;20083;-70
2021/05/11 07:40:57;;;;;;;9.40;4.53;;;;;;;23.47;38.52;99686.41;5042969;28;20055;-69
2021/05/11 07:43:25;;;;;;;7.55;4.30;;;;;;;23.55;38.75;99678.09;5040890;28;20397;-72
2021/05/11 08:05:04;;;;;;;5.25;3.70;;;;;;;24.37;36.65;99675.75;5041943;28;20511;-69
2021/05/11 08:15:41;;;;;;;8.40;4.50;;;;;;;24.95;35.74;99680.19;5040101;28;20659;-68
2021/05/11 08:18:15;;;;;;;6.90;4.13;;;;;;;25.02;36.11;99673.91;5042214;28;20556;-70
2021/05/11 08:27:26;;;;;;;9.32;4.38;;;;;;;25.26;35.45;99675.78;5036771;28;20041;-69
2021/05/11 08:29:04;;;;;;;6.70;4.03;;;;;;;25.47;35.28;99671.03;5041159;28;20056;-70
2021/05/11 08:31:30;;;;;;;10.30;3.90;;;;;;;25.48;34.99;99678.09;5042734;28;20110;-71
2021/05/11 08:33:58;;;;;;;4.55;3.70;;;;;;;25.64;34.98;99668.56;5040134;28;20053;-70
2021/05/11 08:36:26;;;;;;;6.43;3.65;;;;;;;25.69;34.43;99671.44;5019915;28;20045;-69
2021/05/11 08:38:52;;;;;;;8.80;3.67;;;;;;;25.69;34.70;99663.31;5039923;28;20045;-70
2021/05/11 08:41:20;;;;;;;6.95;4.00;;;;;;;25.79;34.54;99670.94;5038325;28;20059;-69
2021/05/11 08:43:47;;;;;;;8.65;4.10;;;;;;;25.94;34.74;99664.09;5038713;28;20041;-68
2021/05/11 08:46:14;;;;;;;8.35;3.83;;;;;;;26.14;33.90;99657.59;5039459;28;20095;-70
2021/05/11 08:48:40;;;;;;;8.38;2.72;;;;;;;26.34;33.32;99657.34;5039443;28;20686;-70
2021/05/11 08:51:11;;;;;;;10.63;3.50;;;;;;;26.33;33.51;99658.41;5044821;28;20295;-71
2021/05/11 08:54:09;;;;;;;6.60;4.20;;;;;;;26.45;33.15;99656.59;5035803;28;20060;-70
2021/05/11 09:05:12;;;;;;;5.32;3.50;;;;;;;26.83;32.73;99641.03;5038471;28;20095;-70
2021/05/11 09:07:50;;;;;;;8.45;3.83;;;;;;;26.86;32.51;99654.94;5039567;28;20049;-71
2021/05/11 09:27:14;;;;;;;5.60;2.72;;;;;;;27.50;30.31;99635.31;4919391;29;20121;-71
2021/05/11 09:29:50;;;;;;;10.90;3.80;;;;;;;27.35;30.23;99637.66;4921218;29;20215;-69
2021/05/11 09:32:38;;;;;;;6.70;2.70;;;;;;;27.20;30.49;99641.66;4921116;29;20217;-71
2021/05/11 10:48:26;;;;;;;5.45;3.53;;;;;;;28.46;28.22;99599.47;5011830;28;20136;-69
2021/05/11 10:50:56;;;;;;;4.55;3.50;;;;;;;28.38;28.69;99602.63;5031268;28;20064;-69
2021/05/11 10:54:04;;;;;;;6.85;3.38;;;;;;;28.51;28.24;99601.47;5015421;28;20045;-71
2021/05/11 10:59:52;;;;;;;5.70;3.50;;;;;;;28.46;29.05;99585.91;4952917;28;20122;-69
2021/05/11 11:05:40;;;;;;;8.60;3.85;;;;;;;28.50;28.58;99580.81;4954313;28;20098;-69
2021/05/11 11:08:38;;;;;;;8.57;3.30;;;;;;;28.53;28.32;99588.47;4957354;28;20134;-70
2021/05/11 11:11:11;;;;;;;5.03;2.28;;;;;;;28.54;28.33;99590.97;4942476;28;20181;-70
2021/05/11 11:13:38;;;;;;;5.13;3.30;;;;;;;28.51;28.35;99577.03;4958015;28;20082;-69
2021/05/11 11:16:06;;;;;;;8.52;3.30;;;;;;;28.53;28.44;99583.03;4959063;28;20063;-69
2021/05/11 11:18:33;;;;;;;6.60;3.45;;;;;;;28.62;28.46;99580.78;4961688;28;20053;-71
2021/05/11 11:23:45;;;;;;;7.80;3.55;;;;;;;28.72;28.64;99580.91;4958624;28;20057;-69
2021/05/11 11:26:13;;;;;;;4.93;3.47;;;;;;;28.86;28.34;99565.91;4978631;28;20655;-69
2021/05/11 11:28:40;;;;;;;5.30;3.58;;;;;;;28.89;27.88;99564.63;5055698;28;20060;-68
2021/05/11 11:31:23;;;;;;;4.63;3.03;;;;;;;28.96;27.80;99566.06;5061996;28;20048;-71
2021/05/11 11:33:49;;;;;;;5.13;3.10;;;;;;;28.95;27.50;99567.13;5059930;28;20047;-70
2021/05/11 11:36:30;;;;;;;5.03;3.70;;;;;;;28.95;27.77;99561.69;5062757;28;20052;-71
2021/05/11 11:38:58;;;;;;;6.22;3.47;;;;;;;28.94;27.38;99561.97;5062005;28;20045;-71
2021/05/11 11:41:25;;;;;;;8.82;4.53;;;;;;;28.97;27.64;99561.47;5060232;28;20048;-70
2021/05/11 11:43:52;;;;;;;8.60;3.45;;;;;;;28.99;27.13;99562.03;5058901;28;20123;-69
2021/05/11 11:46:28;;;;;;;6.00;3.95;;;;;;;29.06;27.25;99559.13;5062281;28;20044;-67
2021/05/11 11:49:01;;;;;;;7.03;3.33;;;;;;;29.16;27.62;99562.84;5024798;28;20060;-70
2021/05/11 11:51:30;;;;;;;7.35;4.03;;;;;;;29.15;27.44;99558.50;5059577;28;20083;-70
2021/05/11 11:54:24;;;;;;;5.32;3.20;;;;;;;29.21;27.44;99545.81;5064280;28;20048;-71
2021/05/11 11:59:36;;;;;;;6.85;3.80;;;;;;;29.32;27.25;99541.31;5065185;28;20052;-69
2021/05/11 12:02:04;;;;;;;5.25;3.13;;;;;;;29.36;27.12;99543.25;5068904;28;20100;-70
2021/05/11 12:04:31;;;;;;;6.10;3.58;;;;;;;29.41;27.11;99550.69;5068373;28;20058;-70
2021/05/11 12:07:03;;;;;;;6.18;3.38;;;;;;;29.46;27.15;99537.16;5063746;28;20515;-71
2021/05/11 12:09:31;;;;;;;12.27;4.63;;;;;;;29.55;27.40;99534.81;5065574;28;20171;-70
2021/05/11 12:12:00;;;;;;;5.18;3.05;;;;;;;29.58;27.20;99531.56;5065539;28;20259;-69
2021/05/11 12:14:27;;;;;;;6.53;4.47;;;;;;;29.58;26.81;99520.66;5064936;28;20074;-69
2021/05/11 12:16:54;;;;;;;4.70;3.00;;;;;;;29.65;27.09;99528.66;5064660;28;20078;-70
2021/05/11 12:19:29;;;;;;;5.38;3.25;;;;;;;29.71;27.42;99523.00;5066963;28;20816;-68
2021/05/11 12:21:57;;;;;;;;;;;;;;;30.09;27.08;99528.59;5067077;28;20056;-72
2021/05/11 12:24:25;;;;;;;8.07;3.58;;;;;;;29.83;27.64;99509.28;5063144;28;19920;-71
2021/05/11 12:27:22;;;;;;;7.28;4.45;;;;;;;29.81;28.00;99500.56;5064528;28;20645;-68
2021/05/11 12:30:02;;;;;;;7.78;4.10;;;;;;;29.87;28.15;99515.03;5066447;28;20048;-73
2021/05/11 12:32:29;;;;;;;4.63;2.70;;;;;;;29.89;27.64;99511.00;5061267;28;20123;-68
2021/05/11 12:35:06;;;;;;;6.22;3.97;;;;;;;29.84;27.72;99501.94;5062650;28;20052;-69
2021/05/11 12:37:50;;;;;;;9.00;3.85;;;;;;;29.95;27.31;99498.25;5064606;28;20596;-70
2021/05/11 12:40:27;;;;;;;12.23;4.28;;;;;;;30.05;27.07;99500.22;5062123;28;20071;-69
2021/05/11 12:42:57;;;;;;;4.15;2.40;;;;;;;30.06;26.95;99499.16;5063486;28;20485;-73
2021/05/11 12:45:24;;;;;;;4.93;2.75;;;;;;;30.08;26.97;99499.72;5063308;28;20051;-73
2021/05/11 12:47:53;;;;;;;6.18;3.85;;;;;;;30.19;26.86;99506.88;5063606;28;20055;-69
2021/05/11 12:50:22;;;;;;;7.38;3.22;;;;;;;30.25;26.80;99491.41;5062438;28;20102;-70
2021/05/11 12:52:50;;;;;;;9.00;4.20;;;;;;;30.26;26.67;99491.16;5062993;28;20113;-72
2021/05/11 12:55:51;;;;;;;7.55;5.43;;;;;;;30.27;26.81;99490.09;5061729;28;20083;-72
2021/05/11 12:58:34;;;;;;;8.25;4.75;;;;;;;30.27;26.64;99489.25;5061411;28;20060;-71
2021/05/11 13:01:06;;;;;;;3.67;2.50;;;;;;;30.22;26.60;99481.06;5061685;28;20172;-70
2021/05/11 13:03:43;;;;;;;7.28;3.55;;;;;;;30.28;26.55;99489.00;5061431;28;20071;-72
2021/05/11 13:17:37;;;;;;;4.97;2.95;;;;;;;30.46;26.96;99463.28;5067790;28;20059;-70
2021/05/11 13:20:22;;;;;;;6.25;3.08;;;;;;;30.48;26.63;99455.66;5077516;28;20040;-70
2021/05/11 13:23:04;;;;;;;9.48;3.33;;;;;;;30.54;26.06;99461.97;5076933;28;20075;-72
2021/05/11 13:25:34;;;;;;;7.03;3.42;;;;;;;30.53;26.45;99460.34;5073587;28;20056;-70
2021/05/11 13:28:08;;;;;;;6.57;4.22;;;;;;;30.55;26.79;99455.44;5078037;28;20037;-70
2021/05/11 13:30:48;;;;;;;4.13;2.45;;;;;;;30.58;25.71;99454.91;5060993;28;20041;-69
2021/05/11 13:33:27;;;;;;;10.65;2.83;;;;;;;30.58;26.07;99449.47;5079563;28;20074;-70
2021/05/11 13:35:54;;;;;;;8.18;3.72;;;;;;;30.55;26.23;99444.53;5079197;28;20032;-70
2021/05/11 13:38:22;;;;;;;8.43;3.20;;;;;;;30.55;26.46;99447.25;5079352;28;20043;-70
2021/05/11 13:40:49;;;;;;;9.40;3.22;;;;;;;30.60;26.27;99439.13;5076633;28;20055;-70
2021/05/11 13:43:15;;;;;;;5.07;2.65;;;;;;;30.63;25.96;99435.03;5076910;28;20085;-70
2021/05/11 13:45:43;;;;;;;7.57;3.50;;;;;;;30.64;26.12;99433.97;5081295;28;20288;-74
2021/05/11 13:48:18;;;;;;;3.97;2.75;;;;;;;30.67;25.77;99436.16;5082199;28;20104;-76
2021/05/11 13:50:59;;;;;;;8.02;3.58;;;;;;;30.74;26.53;99425.84;5080961;28;20058;-70
2021/05/11 13:53:29;;;;;;;6.78;3.08;;;;;;;30.72;26.37;99430.75;5081975;28;20429;-69
2021/05/11 13:56:08;;;;;;;6.75;3.85;;;;;;;30.69;25.96;99428.53;5090490;28;20054;-76
2021/05/11 14:04:11;;;;;;;4.72;2.58;;;;;;;30.69;26.06;99414.91;5019966;28;20069;-73
2021/05/11 14:06:38;;;;;;;3.80;2.50;;;;;;;30.67;26.24;99412.44;5019469;28;20047;-70
2021/05/11 14:09:10;;;;;;;5.50;3.40;;;;;;;30.62;26.53;99400.69;5024443;28;20134;-69
2021/05/11 14:11:38;;;;;;;6.15;2.50;;;;;;;30.52;26.35;99396.00;5023971;28;20069;-71
2021/05/11 14:14:06;;;;;;;7.70;2.90;;;;;;;30.46;27.04;99395.16;5026984;28;20026;-72
2021/05/11 14:16:33;;;;;;;5.38;2.67;;;;;;;30.39;26.37;99391.84;5025944;28;20069;-72
2021/05/11 14:19:00;;;;;;;5.50;2.88;;;;;;;30.33;26.58;99394.78;5024948;28;20046;-70
2021/05/11 14:21:27;;;;;;;4.68;2.80;;;;;;;30.30;26.72;99394.19;5021829;28;20058;-69
2021/05/11 14:23:56;;;;;;;9.73;3.08;;;;;;;30.30;26.78;99391.47;5013390;28;20046;-70
2021/05/11 14:26:23;;;;;;;8.85;2.72;;;;;;;30.28;26.56;99380.03;5000286;28;20170;-68
2021/05/11 14:28:53;;;;;;;4.80;2.83;;;;;;;30.33;26.48;99381.16;5017332;28;20033;-73
2021/05/11 14:31:21;;;;;;;10.45;3.45;;;;;;;30.27;26.58;99383.84;5019626;28;20101;-74
2021/05/11 14:33:50;;;;;;;6.38;2.78;;;;;;;30.23;27.15;99385.47;5009909;28;20119;-70
2021/05/11 14:36:18;;;;;;;4.72;2.55;;;;;;;30.25;27.07;99386.03;5010024;28;20057;-68
2021/05/11 14:38:45;;;;;;;4.43;2.63;;;;;;;30.23;26.72;99376.47;5008772;28;20077;-68
2021/05/11 14:41:14;;;;;;;8.20;2.55;;;;;;;30.21;26.67;99375.91;5049306;28;20036;-68
2021/05/11 14:43:42;;;;;;;5.25;2.63;;;;;;;30.17;26.99;99375.59;5074204;28;20048;-68
2021/05/11 14:46:13;;;;;;;5.97;2.90;;;;;;;30.18;26.82;99377.25;5081281;28;20069;-71
2021/05/11 14:48:40;;;;;;;7.28;3.92;;;;;;;30.22;26.78;99367.47;5074486;28;20076;-68
2021/05/11 14:51:09;;;;;;;5.20;2.78;;;;;;;30.24;27.37;99369.94;5073533;28;20453;-69
2021/05/11 14:53:37;;;;;;;6.43;2.85;;;;;;;30.24;27.37;99375.38;5056008;28;20372;-71
2021/05/11 14:56:05;;;;;;;6.88;3.13;;;;;;;30.29;26.89;99369.97;5073246;28;20041;-71
2021/05/11 14:58:31;;;;;;;5.88;3.20;;;;;;;30.30;27.48;99355.25;5078801;28;20135;-71
2021/05/11 15:00:59;;;;;;;5.68;2.72;;;;;;;30.22;27.00;99369.38;5077824;28;20186;-70
2021/05/11 15:03:26;;;;;;;5.72;3.15;;;;;;;30.20;27.48;99360.66;5077773;28;20060;-71
2021/05/11 15:05:52;;;;;;;9.13;2.53;;;;;;;30.20;26.88;99355.22;5077311;28;20074;-69
2021/05/11 15:08:25;;;;;;;4.60;2.50;;;;;;;30.15;26.86;99355.19;5079895;28;20044;-71
2021/05/11 15:10:51;;;;;;;6.07;2.55;;;;;;;30.15;27.08;99353.28;5078604;28;20685;-71
2021/05/11 15:13:19;;;;;;;8.50;2.47;;;;;;;30.13;26.64;99355.44;5077959;28;20627;-71
2021/05/11 15:15:49;;;;;;;6.03;2.88;;;;;;;30.07;27.30;99361.91;5058724;28;20627;-71
2021/05/11 15:18:16;;;;;;;5.18;3.00;;;;;;;30.06;27.27;99363.81;5071515;28;20048;-69
2021/05/11 15:20:45;;;;;;;4.70;2.47;;;;;;;30.09;27.00;99354.31;5066453;28;20044;-70
2021/05/11 15:23:12;;;;;;;6.88;2.40;;;;;;;30.14;27.08;99359.78;5065715;28;20049;-71